CheckWX is a tool to help pilots better visualize weather data.  It is not intended as a substitute for an official pre-flight weather briefing.

10:12:18 UTC

KBLV METAR
Scott AFB / Midamerica Airport
Belleville, Illinois, USA
Current

16 mins ago

KBLV 220956Z AUTO 17003KT 10SM CLR 20/17 A3002 RMK AO2 SLP165 T01960168 $
Observed
Sep-22 @ 09:56 UTC
Wind
  • 170° at 3 KTS
Visibility
10 SM
Flight Rules
VFR
Cloud Levels
  • Clear skies
Temperature
20°C / 68°F
Dewpoint
17°C / 63°F
Humidity
83%
Altimeter
30.02" Hg
Pressure
1016.62 hPa
Previous

1 hour ago

KBLV 220856Z AUTO 16004KT 10SM FEW095 20/17 A3003 RMK AO2 SLP169 T01980172 58006 $
Observed
Sep-22 @ 08:56 UTC
Wind
  • 160° at 4 KTS
Visibility
10 SM
Flight Rules
VFR
Cloud Levels
  • Few at 9,500' AGL
Temperature
20°C / 68°F
Dewpoint
17°C / 63°F
Humidity
83%
Altimeter
30.03" Hg
Pressure
1016.92 hPa
Previous

2 hours ago

KBLV 220756Z AUTO 16003KT 10SM FEW095 20/18 A3004 RMK AO2 SLP172 T02010177 $
Observed
Sep-22 @ 07:56 UTC
Wind
  • 160° at 3 KTS
Visibility
10 SM
Flight Rules
VFR
Cloud Levels
  • Few at 9,500' AGL
Temperature
20°C / 68°F
Dewpoint
18°C / 64°F
Humidity
88%
Altimeter
30.04" Hg
Pressure
1017.32 hPa